Startpagina
METAR-TAF:

METAR-TAF

Vliegvelden :

Aéroport de Luxembourg

Luxemburg, Luxemburg

breedte: 49-37N, lengte: 006-13E, hoogte: 376 m

Actueel weer

Dit bericht is 38 minuten geleden gemaakt, om 01:20 UTC
Wind 5 kt uit het noorden
Temperatuur -5°C
Vochtigheid 93%
Druk 1004 hPa
Zicht: 9000 m

METAR: ELLX 240120Z AUTO 35005KT 9000 OVC017/// M05/M06 Q1004 NOSIG

Tijdstip: 02:58 (01:58 UTC)

Verwachting

Dit bericht is 2 uur en het 58 minuten geleden gemaakt, om 23:00 UTC
Verwachting geldig van 24 om 00 UTC tot 25 om 06 UTC
Wind 5 kt uit het noorden
Zicht: 6000 m
Verspreide wolken op 1000 ft
Gebroken wolken op 1500 ft
Tijdelijke
van 24 om 00 UTC tot 24 om 07 UTC
Zicht: 3000 m
Gebroken wolken op 1000 ft
nevel
Kans 40% :
Tijdelijke
van 25 om 00 UTC tot 25 om 06 UTC
Zicht: 3000 m
nevel

TAF: ELLX 232300Z 2400/2506 36005KT 6000 SCT010 BKN015 TEMPO 2400/2407 3000 BR BKN010 PROB40 TEMPO 2500/2506 3000 BR

Waarnemingen en weersverwachtingen van meer dan 4000 vliegvelden (METAR en TAF).

De beschikbare stations zijn de gele en rode punten op de kaart.

Ga met uw muis naar het station om de naam te zien.

Klik dan om waarnemingen en weersverwachtingen te zien.

kaart wijzigen: klik op de groene knoppen met een zwart kruis om in te zoomen, op de groene knop met een streepje om uit te zoomen of op de groene pijlen voor aangrenzende kaarten.


METAR-TAF: